Terminal Aerodrome Forecast
Issued by NWS

Home | Current Version | Previous Version | Text Only | Print | Product List | Glossary On
Versions: 1 2 3 4 5 6 7 8 9 10 11 12 13
000
FTUS46 KSEW 260500
TAFCLM
TAF
KCLM 260530Z 2606/2706 24005KT P6SM BKN035
     FM261200 00000KT P6SM OVC015
     FM261800 24003KT P6SM BKN035=

USA.gov is the U.S. government's official web portal to all federal, state and local government web resources and services.